sensor_id;sensor_type;location;lat;lon;timestamp;pressure;altitude;pressure_sealevel;temperature;humidity
20755;BME280;26385;48.470;7.938;2022-07-29T00:01:59;99566.53;;;24.05;63.59
20755;BME280;26385;48.470;7.938;2022-07-29T00:04:25;99569.06;;;24.27;62.95
20755;BME280;26385;48.470;7.938;2022-07-29T00:06:50;99568.13;;;24.28;62.90
20755;BME280;26385;48.470;7.938;2022-07-29T00:09:15;99580.13;;;24.17;63.21
20755;BME280;26385;48.470;7.938;2022-07-29T00:11:41;99573.66;;;24.03;63.93
20755;BME280;26385;48.470;7.938;2022-07-29T00:14:07;99573.19;;;23.94;64.26
20755;BME280;26385;48.470;7.938;2022-07-29T00:16:32;99563.16;;;24.02;63.98
20755;BME280;26385;48.470;7.938;2022-07-29T00:18:57;99566.88;;;23.98;64.44
20755;BME280;26385;48.470;7.938;2022-07-29T00:21:22;99563.75;;;24.08;64.10
20755;BME280;26385;48.470;7.938;2022-07-29T00:23:48;99560.38;;;24.05;64.13
20755;BME280;26385;48.470;7.938;2022-07-29T00:26:13;99566.56;;;24.04;64.22
20755;BME280;26385;48.470;7.938;2022-07-29T00:28:38;99560.81;;;23.94;64.58
20755;BME280;26385;48.470;7.938;2022-07-29T00:31:03;99558.47;;;23.88;64.77
20755;BME280;26385;48.470;7.938;2022-07-29T00:33:29;99560.03;;;23.92;64.82
20755;BME280;26385;48.470;7.938;2022-07-29T00:35:54;99553.91;;;23.92;64.72
20755;BME280;26385;48.470;7.938;2022-07-29T00:38:20;99554.59;;;23.95;64.46
20755;BME280;26385;48.470;7.938;2022-07-29T00:40:46;99555.09;;;23.84;64.90
20755;BME280;26385;48.470;7.938;2022-07-29T00:43:12;99552.38;;;23.86;65.26
20755;BME280;26385;48.470;7.938;2022-07-29T00:45:39;99551.66;;;23.82;65.17
20755;BME280;26385;48.470;7.938;2022-07-29T00:48:04;99556.34;;;23.76;65.70
20755;BME280;26385;48.470;7.938;2022-07-29T00:50:31;99553.22;;;23.86;65.16
20755;BME280;26385;48.470;7.938;2022-07-29T00:52:57;99552.78;;;23.97;64.87
20755;BME280;26385;48.470;7.938;2022-07-29T00:55:23;99550.47;;;23.90;65.38
20755;BME280;26385;48.470;7.938;2022-07-29T00:57:49;99549.38;;;23.94;65.38
20755;BME280;26385;48.470;7.938;2022-07-29T01:00:20;99551.09;;;23.95;65.26
20755;BME280;26385;48.470;7.938;2022-07-29T01:02:47;99549.78;;;23.84;65.53
20755;BME280;26385;48.470;7.938;2022-07-29T01:05:20;99549.75;;;23.66;66.22
20755;BME280;26385;48.470;7.938;2022-07-29T01:07:48;99546.94;;;23.69;66.34
20755;BME280;26385;48.470;7.938;2022-07-29T01:10:15;99554.81;;;23.70;66.16
20755;BME280;26385;48.470;7.938;2022-07-29T01:12:43;99556.28;;;23.77;65.97
20755;BME280;26385;48.470;7.938;2022-07-29T01:15:09;99546.09;;;23.68;66.17
20755;BME280;26385;48.470;7.938;2022-07-29T01:17:45;99549.19;;;23.78;66.48
20755;BME280;26385;48.470;7.938;2022-07-29T01:25:58;99544.44;;;23.23;68.32
20755;BME280;26385;48.470;7.938;2022-07-29T01:28:46;99548.84;;;23.23;68.36
20755;BME280;26385;48.470;7.938;2022-07-29T01:31:58;99552.75;;;23.35;67.93
20755;BME280;26385;48.470;7.938;2022-07-29T01:34:05;99549.66;;;23.45;67.69
20755;BME280;26385;48.470;7.938;2022-07-29T01:36:37;99556.50;;;23.51;67.33
20755;BME280;26385;48.470;7.938;2022-07-29T01:39:10;99560.00;;;23.51;67.28
20755;BME280;26385;48.470;7.938;2022-07-29T01:41:40;99553.00;;;23.50;67.00
20755;BME280;26385;48.470;7.938;2022-07-29T01:44:30;99550.13;;;23.35;68.20
20755;BME280;26385;48.470;7.938;2022-07-29T01:47:00;99548.16;;;23.40;67.82
20755;BME280;26385;48.470;7.938;2022-07-29T01:49:31;99555.09;;;23.42;68.20
20755;BME280;26385;48.470;7.938;2022-07-29T01:52:03;99546.47;;;23.37;67.40
20755;BME280;26385;48.470;7.938;2022-07-29T01:54:32;99551.34;;;23.48;66.98
20755;BME280;26385;48.470;7.938;2022-07-29T01:57:00;99552.28;;;23.47;67.10
20755;BME280;26385;48.470;7.938;2022-07-29T01:59:28;99557.66;;;23.44;67.11
20755;BME280;26385;48.470;7.938;2022-07-29T02:01:57;99565.34;;;23.50;67.28
20755;BME280;26385;48.470;7.938;2022-07-29T02:04:23;99562.13;;;23.21;68.12
20755;BME280;26385;48.470;7.938;2022-07-29T02:06:52;99557.81;;;23.19;68.17
20755;BME280;26385;48.470;7.938;2022-07-29T02:09:19;99563.97;;;23.19;68.06
20755;BME280;26385;48.470;7.938;2022-07-29T02:11:49;99564.59;;;23.04;68.90
20755;BME280;26385;48.470;7.938;2022-07-29T02:14:18;99567.56;;;22.95;69.41
20755;BME280;26385;48.470;7.938;2022-07-29T02:16:47;99569.75;;;22.84;69.96
20755;BME280;26385;48.470;7.938;2022-07-29T02:19:13;99565.94;;;23.14;68.53
20755;BME280;26385;48.470;7.938;2022-07-29T02:21:40;99565.50;;;23.03;69.52
20755;BME280;26385;48.470;7.938;2022-07-29T02:24:07;99564.03;;;22.96;69.59
20755;BME280;26385;48.470;7.938;2022-07-29T02:26:33;99565.13;;;22.90;69.98
20755;BME280;26385;48.470;7.938;2022-07-29T02:28:59;99559.97;;;22.64;71.01
20755;BME280;26385;48.470;7.938;2022-07-29T02:31:30;99566.53;;;22.54;71.41
20755;BME280;26385;48.470;7.938;2022-07-29T02:33:58;99566.22;;;22.61;71.31
20755;BME280;26385;48.470;7.938;2022-07-29T02:36:24;99565.63;;;22.53;71.37
20755;BME280;26385;48.470;7.938;2022-07-29T02:38:51;99561.97;;;22.57;71.17
20755;BME280;26385;48.470;7.938;2022-07-29T02:43:55;99575.91;;;22.61;70.81
20755;BME280;26385;48.470;7.938;2022-07-29T02:46:31;99572.97;;;22.68;70.68
20755;BME280;26385;48.470;7.938;2022-07-29T02:51:53;99574.25;;;22.58;70.54
20755;BME280;26385;48.470;7.938;2022-07-29T02:54:27;99577.94;;;22.54;70.87
20755;BME280;26385;48.470;7.938;2022-07-29T02:56:59;99578.75;;;22.56;71.08
20755;BME280;26385;48.470;7.938;2022-07-29T02:59:27;99578.84;;;22.53;71.43
20755;BME280;26385;48.470;7.938;2022-07-29T03:01:57;99581.53;;;22.52;71.18
20755;BME280;26385;48.470;7.938;2022-07-29T03:04:25;99576.16;;;22.55;71.09
20755;BME280;26385;48.470;7.938;2022-07-29T03:06:53;99594.28;;;22.40;71.49
20755;BME280;26385;48.470;7.938;2022-07-29T03:09:21;99589.94;;;22.63;70.51
20755;BME280;26385;48.470;7.938;2022-07-29T03:11:47;99588.88;;;22.43;70.88
20755;BME280;26385;48.470;7.938;2022-07-29T03:14:13;99596.72;;;22.46;70.74
20755;BME280;26385;48.470;7.938;2022-07-29T03:16:39;99589.66;;;22.70;69.95
20755;BME280;26385;48.470;7.938;2022-07-29T03:19:05;99587.81;;;22.49;71.10
20755;BME280;26385;48.470;7.938;2022-07-29T03:21:30;99591.66;;;22.64;70.06
20755;BME280;26385;48.470;7.938;2022-07-29T03:23:56;99588.50;;;22.54;70.29
20755;BME280;26385;48.470;7.938;2022-07-29T03:26:21;99602.03;;;22.45;70.84
20755;BME280;26385;48.470;7.938;2022-07-29T03:28:46;99598.63;;;22.41;70.88
20755;BME280;26385;48.470;7.938;2022-07-29T03:31:12;99600.41;;;22.41;71.52
20755;BME280;26385;48.470;7.938;2022-07-29T03:33:37;99605.53;;;22.45;71.17
20755;BME280;26385;48.470;7.938;2022-07-29T03:36:02;99605.28;;;22.52;71.05
20755;BME280;26385;48.470;7.938;2022-07-29T03:38:29;99601.34;;;22.40;71.29
20755;BME280;26385;48.470;7.938;2022-07-29T03:41:06;99604.09;;;22.37;71.77
20755;BME280;26385;48.470;7.938;2022-07-29T03:43:35;99607.59;;;22.37;71.43
20755;BME280;26385;48.470;7.938;2022-07-29T03:46:01;99608.28;;;22.42;71.46
20755;BME280;26385;48.470;7.938;2022-07-29T03:48:30;99607.63;;;22.36;71.54
20755;BME280;26385;48.470;7.938;2022-07-29T03:50:57;99609.38;;;22.37;71.77
20755;BME280;26385;48.470;7.938;2022-07-29T03:53:23;99612.59;;;22.45;70.84
20755;BME280;26385;48.470;7.938;2022-07-29T03:55:53;99611.91;;;22.40;71.26
20755;BME280;26385;48.470;7.938;2022-07-29T03:58:19;99614.69;;;22.35;71.41
20755;BME280;26385;48.470;7.938;2022-07-29T04:00:46;99608.31;;;22.17;72.47
20755;BME280;26385;48.470;7.938;2022-07-29T04:03:12;99617.72;;;22.25;71.71
20755;BME280;26385;48.470;7.938;2022-07-29T04:05:38;99605.13;;;22.33;71.76
20755;BME280;26385;48.470;7.938;2022-07-29T04:08:03;99612.22;;;22.31;71.62
20755;BME280;26385;48.470;7.938;2022-07-29T04:10:28;99606.69;;;22.38;71.25
20755;BME280;26385;48.470;7.938;2022-07-29T04:12:54;99611.03;;;22.39;70.95
20755;BME280;26385;48.470;7.938;2022-07-29T04:15:19;99613.94;;;22.32;71.51
20755;BME280;26385;48.470;7.938;2022-07-29T04:17:44;99620.63;;;22.17;72.32
20755;BME280;26385;48.470;7.938;2022-07-29T04:20:10;99618.75;;;22.21;71.93
20755;BME280;26385;48.470;7.938;2022-07-29T04:22:38;99621.88;;;22.32;71.41
20755;BME280;26385;48.470;7.938;2022-07-29T04:25:04;99623.91;;;22.24;71.90
20755;BME280;26385;48.470;7.938;2022-07-29T04:27:29;99626.09;;;22.36;71.58
20755;BME280;26385;48.470;7.938;2022-07-29T04:29:54;99629.66;;;22.35;71.23
20755;BME280;26385;48.470;7.938;2022-07-29T04:32:20;99630.75;;;22.29;71.42
20755;BME280;26385;48.470;7.938;2022-07-29T04:34:45;99630.13;;;22.23;71.74
20755;BME280;26385;48.470;7.938;2022-07-29T04:37:11;99628.53;;;22.17;72.41
20755;BME280;26385;48.470;7.938;2022-07-29T04:39:37;99627.28;;;22.29;71.59
20755;BME280;26385;48.470;7.938;2022-07-29T04:42:02;99637.25;;;22.44;71.06
20755;BME280;26385;48.470;7.938;2022-07-29T04:44:27;99635.47;;;22.19;72.06
20755;BME280;26385;48.470;7.938;2022-07-29T04:46:53;99639.00;;;22.20;72.13
20755;BME280;26385;48.470;7.938;2022-07-29T04:49:18;99641.59;;;22.22;71.14
20755;BME280;26385;48.470;7.938;2022-07-29T04:51:44;99648.03;;;22.13;72.17
20755;BME280;26385;48.470;7.938;2022-07-29T04:54:09;99647.47;;;22.03;72.39
20755;BME280;26385;48.470;7.938;2022-07-29T04:56:34;99648.38;;;22.02;72.29
20755;BME280;26385;48.470;7.938;2022-07-29T04:58:59;99653.56;;;22.05;72.21
20755;BME280;26385;48.470;7.938;2022-07-29T05:01:25;99659.66;;;22.07;72.64
20755;BME280;26385;48.470;7.938;2022-07-29T05:03:50;99656.59;;;21.93;73.03
20755;BME280;26385;48.470;7.938;2022-07-29T05:06:15;99649.50;;;21.95;72.85
20755;BME280;26385;48.470;7.938;2022-07-29T05:08:41;99651.31;;;21.93;73.08
20755;BME280;26385;48.470;7.938;2022-07-29T05:11:06;99646.56;;;22.04;72.59
20755;BME280;26385;48.470;7.938;2022-07-29T05:13:31;99657.88;;;22.08;72.55
20755;BME280;26385;48.470;7.938;2022-07-29T05:15:56;99654.06;;;22.16;71.93
20755;BME280;26385;48.470;7.938;2022-07-29T05:18:24;99657.44;;;21.95;73.18
20755;BME280;26385;48.470;7.938;2022-07-29T05:20:49;99657.09;;;22.04;72.84
20755;BME280;26385;48.470;7.938;2022-07-29T05:23:14;99662.31;;;22.07;72.96
20755;BME280;26385;48.470;7.938;2022-07-29T05:25:39;99663.16;;;22.08;72.64
20755;BME280;26385;48.470;7.938;2022-07-29T05:28:05;99666.03;;;22.00;73.09
20755;BME280;26385;48.470;7.938;2022-07-29T05:30:30;99673.34;;;22.18;72.57
20755;BME280;26385;48.470;7.938;2022-07-29T05:32:55;99672.66;;;22.13;72.41
20755;BME280;26385;48.470;7.938;2022-07-29T05:35:21;99668.19;;;22.15;72.67
20755;BME280;26385;48.470;7.938;2022-07-29T05:37:46;99673.84;;;22.30;73.29
20755;BME280;26385;48.470;7.938;2022-07-29T05:40:11;99676.22;;;22.61;71.11
20755;BME280;26385;48.470;7.938;2022-07-29T05:42:37;99680.56;;;22.87;69.65
20755;BME280;26385;48.470;7.938;2022-07-29T05:45:02;99683.56;;;23.01;69.09
20755;BME280;26385;48.470;7.938;2022-07-29T05:47:28;99685.00;;;23.10;67.59
20755;BME280;26385;48.470;7.938;2022-07-29T05:49:53;99684.72;;;23.17;67.69
20755;BME280;26385;48.470;7.938;2022-07-29T05:52:19;99691.13;;;23.34;67.31
20755;BME280;26385;48.470;7.938;2022-07-29T05:54:44;99694.09;;;23.48;66.67
20755;BME280;26385;48.470;7.938;2022-07-29T05:57:21;99686.25;;;23.45;67.28
20755;BME280;26385;48.470;7.938;2022-07-29T05:59:47;99683.81;;;23.64;66.17
20755;BME280;26385;48.470;7.938;2022-07-29T06:02:12;99687.53;;;23.80;65.77
20755;BME280;26385;48.470;7.938;2022-07-29T06:04:37;99683.16;;;23.79;64.13
20755;BME280;26385;48.470;7.938;2022-07-29T06:07:03;99693.56;;;23.83;64.51
20755;BME280;26385;48.470;7.938;2022-07-29T06:09:29;99688.66;;;23.95;64.12
20755;BME280;26385;48.470;7.938;2022-07-29T06:11:54;99693.38;;;24.08;63.39
20755;BME280;26385;48.470;7.938;2022-07-29T06:14:19;99695.72;;;24.16;63.63
20755;BME280;26385;48.470;7.938;2022-07-29T06:16:45;99693.94;;;24.37;62.59
20755;BME280;26385;48.470;7.938;2022-07-29T06:19:10;99682.25;;;24.42;62.21
20755;BME280;26385;48.470;7.938;2022-07-29T06:21:35;99693.63;;;24.65;61.40
20755;BME280;26385;48.470;7.938;2022-07-29T06:24:01;99701.22;;;24.73;61.04
20755;BME280;26385;48.470;7.938;2022-07-29T06:26:26;99699.97;;;24.61;60.85
20755;BME280;26385;48.470;7.938;2022-07-29T06:28:52;99695.63;;;24.39;61.96
20755;BME280;26385;48.470;7.938;2022-07-29T06:31:17;99694.94;;;24.55;61.74
20755;BME280;26385;48.470;7.938;2022-07-29T06:33:42;99693.63;;;24.65;61.74
20755;BME280;26385;48.470;7.938;2022-07-29T06:36:08;99682.09;;;24.66;61.36
20755;BME280;26385;48.470;7.938;2022-07-29T06:38:33;99696.13;;;24.68;61.13
20755;BME280;26385;48.470;7.938;2022-07-29T06:40:59;99695.59;;;24.60;61.12
20755;BME280;26385;48.470;7.938;2022-07-29T06:43:26;99695.56;;;24.41;61.58
20755;BME280;26385;48.470;7.938;2022-07-29T06:45:51;99694.56;;;24.43;61.24
20755;BME280;26385;48.470;7.938;2022-07-29T06:48:17;99698.13;;;24.42;61.05
20755;BME280;26385;48.470;7.938;2022-07-29T06:50:42;99693.09;;;24.36;61.12
20755;BME280;26385;48.470;7.938;2022-07-29T06:53:07;99697.56;;;24.75;60.00
20755;BME280;26385;48.470;7.938;2022-07-29T06:55:32;99703.13;;;24.89;59.39
20755;BME280;26385;48.470;7.938;2022-07-29T06:57:58;99697.34;;;25.19;59.14
20755;BME280;26385;48.470;7.938;2022-07-29T07:00:23;99704.00;;;25.46;58.47
20755;BME280;26385;48.470;7.938;2022-07-29T07:02:48;99702.63;;;25.57;57.18
20755;BME280;26385;48.470;7.938;2022-07-29T07:05:14;99707.72;;;25.42;57.99
20755;BME280;26385;48.470;7.938;2022-07-29T07:07:39;99702.34;;;25.44;57.25
20755;BME280;26385;48.470;7.938;2022-07-29T07:10:05;99705.09;;;25.42;56.79
20755;BME280;26385;48.470;7.938;2022-07-29T07:12:30;99702.22;;;25.28;56.24
20755;BME280;26385;48.470;7.938;2022-07-29T07:14:55;99713.25;;;25.19;56.10
20755;BME280;26385;48.470;7.938;2022-07-29T07:17:20;99719.50;;;25.18;56.12
20755;BME280;26385;48.470;7.938;2022-07-29T07:19:47;99724.38;;;25.27;56.08
20755;BME280;26385;48.470;7.938;2022-07-29T07:22:12;99721.28;;;25.17;56.36
20755;BME280;26385;48.470;7.938;2022-07-29T07:24:37;99723.06;;;25.17;56.69
20755;BME280;26385;48.470;7.938;2022-07-29T07:27:03;99726.00;;;25.11;56.87
20755;BME280;26385;48.470;7.938;2022-07-29T07:29:28;99733.88;;;25.12;56.16
20755;BME280;26385;48.470;7.938;2022-07-29T07:31:53;99731.88;;;25.17;55.95
20755;BME280;26385;48.470;7.938;2022-07-29T07:34:19;99730.75;;;25.23;55.71
20755;BME280;26385;48.470;7.938;2022-07-29T07:36:44;99728.44;;;25.34;55.07
20755;BME280;26385;48.470;7.938;2022-07-29T07:39:09;99743.41;;;25.35;54.42
20755;BME280;26385;48.470;7.938;2022-07-29T07:41:35;99746.06;;;25.35;54.66
20755;BME280;26385;48.470;7.938;2022-07-29T07:44:00;99746.38;;;25.48;54.62
20755;BME280;26385;48.470;7.938;2022-07-29T07:46:25;99741.25;;;25.62;53.09
20755;BME280;26385;48.470;7.938;2022-07-29T07:48:50;99744.41;;;25.51;52.03
20755;BME280;26385;48.470;7.938;2022-07-29T07:51:17;99742.72;;;25.50;52.34
20755;BME280;26385;48.470;7.938;2022-07-29T07:53:42;99749.22;;;25.81;51.75
20755;BME280;26385;48.470;7.938;2022-07-29T07:56:09;99746.88;;;25.75;51.85
20755;BME280;26385;48.470;7.938;2022-07-29T07:58:34;99752.81;;;25.80;52.16
20755;BME280;26385;48.470;7.938;2022-07-29T08:01:00;99745.69;;;25.80;51.10
20755;BME280;26385;48.470;7.938;2022-07-29T08:03:25;99754.91;;;25.73;50.03
20755;BME280;26385;48.470;7.938;2022-07-29T08:05:50;99755.31;;;25.83;50.19
20755;BME280;26385;48.470;7.938;2022-07-29T08:08:17;99747.53;;;25.97;50.56
20755;BME280;26385;48.470;7.938;2022-07-29T08:10:42;99752.25;;;26.09;49.60
20755;BME280;26385;48.470;7.938;2022-07-29T08:13:25;99739.28;;;26.21;49.58
20755;BME280;26385;48.470;7.938;2022-07-29T08:15:53;99748.38;;;26.34;49.50
20755;BME280;26385;48.470;7.938;2022-07-29T08:18:26;99746.41;;;26.37;49.03
20755;BME280;26385;48.470;7.938;2022-07-29T08:20:52;99750.47;;;26.27;48.67
20755;BME280;26385;48.470;7.938;2022-07-29T08:23:17;99750.84;;;26.37;48.97
20755;BME280;26385;48.470;7.938;2022-07-29T08:25:44;99759.69;;;26.55;48.56
20755;BME280;26385;48.470;7.938;2022-07-29T08:28:09;99755.78;;;26.79;47.59
20755;BME280;26385;48.470;7.938;2022-07-29T08:30:34;99760.06;;;26.99;47.46
20755;BME280;26385;48.470;7.938;2022-07-29T08:33:00;99760.53;;;27.23;47.05
20755;BME280;26385;48.470;7.938;2022-07-29T08:35:26;99758.66;;;27.41;46.26
20755;BME280;26385;48.470;7.938;2022-07-29T08:37:52;99760.38;;;27.58;46.23
20755;BME280;26385;48.470;7.938;2022-07-29T08:40:18;99759.84;;;27.84;45.55
20755;BME280;26385;48.470;7.938;2022-07-29T08:42:44;99762.22;;;28.04;44.25
20755;BME280;26385;48.470;7.938;2022-07-29T08:45:09;99758.75;;;28.34;44.34
20755;BME280;26385;48.470;7.938;2022-07-29T08:47:35;99760.56;;;28.48;43.67
20755;BME280;26385;48.470;7.938;2022-07-29T08:50:04;99760.72;;;28.30;43.25
20755;BME280;26385;48.470;7.938;2022-07-29T08:52:33;99760.81;;;28.29;43.09
20755;BME280;26385;48.470;7.938;2022-07-29T08:55:01;99762.44;;;28.31;43.06
20755;BME280;26385;48.470;7.938;2022-07-29T08:57:27;99761.97;;;28.23;42.75
20755;BME280;26385;48.470;7.938;2022-07-29T08:59:54;99763.75;;;28.09;42.99
20755;BME280;26385;48.470;7.938;2022-07-29T09:02:20;99774.44;;;27.93;43.62
20755;BME280;26385;48.470;7.938;2022-07-29T09:04:46;99769.00;;;27.94;43.72
20755;BME280;26385;48.470;7.938;2022-07-29T09:07:17;99766.06;;;27.99;44.04
20755;BME280;26385;48.470;7.938;2022-07-29T09:09:44;99766.06;;;27.99;44.07
20755;BME280;26385;48.470;7.938;2022-07-29T09:12:10;99766.50;;;28.07;43.71
20755;BME280;26385;48.470;7.938;2022-07-29T09:14:39;99770.59;;;28.13;43.67
20755;BME280;26385;48.470;7.938;2022-07-29T09:17:05;99766.47;;;28.23;43.51
20755;BME280;26385;48.470;7.938;2022-07-29T09:19:32;99769.47;;;28.32;42.93
20755;BME280;26385;48.470;7.938;2022-07-29T09:22:00;99765.25;;;28.28;42.40
20755;BME280;26385;48.470;7.938;2022-07-29T09:27:01;99764.19;;;28.01;42.63
20755;BME280;26385;48.470;7.938;2022-07-29T09:29:27;99764.97;;;27.87;42.31
20755;BME280;26385;48.470;7.938;2022-07-29T09:31:54;99765.16;;;28.00;42.77
20755;BME280;26385;48.470;7.938;2022-07-29T09:34:27;99756.94;;;28.35;41.60
20755;BME280;26385;48.470;7.938;2022-07-29T09:36:54;99754.91;;;28.68;41.31
20755;BME280;26385;48.470;7.938;2022-07-29T09:39:35;99740.59;;;29.13;41.01
20755;BME280;26385;48.470;7.938;2022-07-29T09:42:05;99736.75;;;29.60;39.88
20755;BME280;26385;48.470;7.938;2022-07-29T09:45:00;99739.19;;;29.90;38.79
20755;BME280;26385;48.470;7.938;2022-07-29T09:47:40;99740.75;;;30.07;38.27
20755;BME280;26385;48.470;7.938;2022-07-29T09:50:06;99738.06;;;30.34;37.45
20755;BME280;26385;48.470;7.938;2022-07-29T09:52:44;99736.91;;;30.38;37.06
20755;BME280;26385;48.470;7.938;2022-07-29T09:55:10;99729.34;;;30.45;36.35
20755;BME280;26385;48.470;7.938;2022-07-29T09:57:36;99727.63;;;30.57;36.80
20755;BME280;26385;48.470;7.938;2022-07-29T10:00:13;99731.91;;;30.59;37.09
20755;BME280;26385;48.470;7.938;2022-07-29T10:02:42;99725.50;;;30.62;36.64
20755;BME280;26385;48.470;7.938;2022-07-29T10:05:23;99723.56;;;30.51;35.86
20755;BME280;26385;48.470;7.938;2022-07-29T10:07:54;99720.25;;;30.60;36.24
20755;BME280;26385;48.470;7.938;2022-07-29T10:10:28;99728.63;;;30.68;36.25
20755;BME280;26385;48.470;7.938;2022-07-29T10:13:05;99729.41;;;30.70;35.72
20755;BME280;26385;48.470;7.938;2022-07-29T10:15:34;99730.44;;;30.68;35.84
20755;BME280;26385;48.470;7.938;2022-07-29T10:18:02;99726.06;;;30.67;35.82
20755;BME280;26385;48.470;7.938;2022-07-29T10:20:28;99728.31;;;30.73;35.71
20755;BME280;26385;48.470;7.938;2022-07-29T10:22:54;99720.50;;;30.82;35.98
20755;BME280;26385;48.470;7.938;2022-07-29T10:25:21;99714.94;;;30.98;35.91
20755;BME280;26385;48.470;7.938;2022-07-29T10:27:48;99720.81;;;31.03;35.74
20755;BME280;26385;48.470;7.938;2022-07-29T10:30:16;99719.19;;;31.14;35.96
20755;BME280;26385;48.470;7.938;2022-07-29T10:35:45;99718.19;;;31.77;34.75
20755;BME280;26385;48.470;7.938;2022-07-29T10:41:05;99715.13;;;32.29;33.95
20755;BME280;26385;48.470;7.938;2022-07-29T10:44:03;99711.28;;;32.44;33.92
20755;BME280;26385;48.470;7.938;2022-07-29T10:46:35;99716.81;;;32.65;33.31
20755;BME280;26385;48.470;7.938;2022-07-29T10:57:14;99713.16;;;32.66;32.47
20755;BME280;26385;48.470;7.938;2022-07-29T10:59:40;99714.13;;;32.65;32.65
20755;BME280;26385;48.470;7.938;2022-07-29T11:05:16;99708.50;;;32.46;32.62
20755;BME280;26385;48.470;7.938;2022-07-29T11:10:33;99712.78;;;31.53;34.16
20755;BME280;26385;48.470;7.938;2022-07-29T11:12:59;99724.22;;;31.31;34.98
20755;BME280;26385;48.470;7.938;2022-07-29T11:15:24;99722.91;;;30.47;35.35
20755;BME280;26385;48.470;7.938;2022-07-29T11:23:32;99716.88;;;29.91;35.16
20755;BME280;26385;48.470;7.938;2022-07-29T11:31:04;99719.50;;;29.37;35.77
20755;BME280;26385;48.470;7.938;2022-07-29T11:33:31;99727.88;;;29.60;35.58
20755;BME280;26385;48.470;7.938;2022-07-29T11:36:08;99717.63;;;29.66;36.34
20755;BME280;26385;48.470;7.938;2022-07-29T11:38:34;99721.13;;;29.26;36.90
20755;BME280;26385;48.470;7.938;2022-07-29T11:41:25;99720.34;;;29.38;37.22
20755;BME280;26385;48.470;7.938;2022-07-29T11:43:52;99726.06;;;29.60;36.75
20755;BME280;26385;48.470;7.938;2022-07-29T11:49:12;99733.28;;;29.58;36.84
20755;BME280;26385;48.470;7.938;2022-07-29T11:51:38;99740.06;;;29.64;36.74
20755;BME280;26385;48.470;7.938;2022-07-29T11:54:04;99741.28;;;29.58;36.71
20755;BME280;26385;48.470;7.938;2022-07-29T11:56:34;99732.06;;;29.64;36.37
20755;BME280;26385;48.470;7.938;2022-07-29T11:59:05;99732.91;;;29.64;36.45
20755;BME280;26385;48.470;7.938;2022-07-29T12:01:31;99728.41;;;29.65;36.29
20755;BME280;26385;48.470;7.938;2022-07-29T12:04:07;99726.81;;;29.48;36.43
20755;BME280;26385;48.470;7.938;2022-07-29T12:06:35;99727.88;;;29.46;36.67
20755;BME280;26385;48.470;7.938;2022-07-29T12:09:07;99729.44;;;29.21;37.70
20755;BME280;26385;48.470;7.938;2022-07-29T12:11:32;99729.72;;;29.16;37.71
20755;BME280;26385;48.470;7.938;2022-07-29T12:13:58;99734.19;;;29.16;37.89
20755;BME280;26385;48.470;7.938;2022-07-29T12:16:34;99737.44;;;29.21;37.21
20755;BME280;26385;48.470;7.938;2022-07-29T12:19:01;99735.16;;;29.15;37.21
20755;BME280;26385;48.470;7.938;2022-07-29T12:21:28;99732.19;;;29.20;36.91
20755;BME280;26385;48.470;7.938;2022-07-29T12:23:54;99735.03;;;29.31;36.69
20755;BME280;26385;48.470;7.938;2022-07-29T12:26:20;99733.81;;;29.36;36.01
20755;BME280;26385;48.470;7.938;2022-07-29T12:28:45;99734.38;;;29.27;36.06
20755;BME280;26385;48.470;7.938;2022-07-29T12:31:15;99730.09;;;29.25;36.15
20755;BME280;26385;48.470;7.938;2022-07-29T12:33:41;99727.16;;;29.15;37.40
20755;BME280;26385;48.470;7.938;2022-07-29T12:36:06;99730.31;;;28.93;37.84
20755;BME280;26385;48.470;7.938;2022-07-29T12:38:33;99731.94;;;28.96;37.92
20755;BME280;26385;48.470;7.938;2022-07-29T12:40:59;99735.88;;;28.88;37.81
20755;BME280;26385;48.470;7.938;2022-07-29T12:43:25;99727.88;;;28.88;38.30
20755;BME280;26385;48.470;7.938;2022-07-29T12:45:52;99731.72;;;28.99;37.97
20755;BME280;26385;48.470;7.938;2022-07-29T12:48:38;99729.78;;;28.86;37.87
20755;BME280;26385;48.470;7.938;2022-07-29T12:51:05;99730.75;;;28.85;37.64
20755;BME280;26385;48.470;7.938;2022-07-29T12:53:32;99736.88;;;29.02;37.81
20755;BME280;26385;48.470;7.938;2022-07-29T12:55:58;99732.84;;;29.09;37.30
20755;BME280;26385;48.470;7.938;2022-07-29T12:58:38;99733.06;;;29.20;36.93
20755;BME280;26385;48.470;7.938;2022-07-29T13:06:32;99719.88;;;29.31;36.51
20755;BME280;26385;48.470;7.938;2022-07-29T13:11:34;99730.75;;;29.28;36.56
20755;BME280;26385;48.470;7.938;2022-07-29T13:14:00;99719.50;;;29.37;36.44
20755;BME280;26385;48.470;7.938;2022-07-29T13:16:25;99722.28;;;29.36;36.27
20755;BME280;26385;48.470;7.938;2022-07-29T13:19:04;99725.59;;;29.25;36.48
20755;BME280;26385;48.470;7.938;2022-07-29T13:21:30;99723.50;;;29.30;36.57
20755;BME280;26385;48.470;7.938;2022-07-29T13:23:55;99727.34;;;29.12;36.61
20755;BME280;26385;48.470;7.938;2022-07-29T13:26:20;99733.22;;;29.17;36.57
20755;BME280;26385;48.470;7.938;2022-07-29T13:28:45;99732.47;;;29.15;36.65
20755;BME280;26385;48.470;7.938;2022-07-29T13:31:11;99731.63;;;29.14;36.91
20755;BME280;26385;48.470;7.938;2022-07-29T13:33:36;99735.06;;;29.02;36.96
20755;BME280;26385;48.470;7.938;2022-07-29T13:36:01;99730.88;;;29.12;37.37
20755;BME280;26385;48.470;7.938;2022-07-29T13:38:26;99735.63;;;29.22;36.85
20755;BME280;26385;48.470;7.938;2022-07-29T13:40:52;99728.78;;;29.03;37.19
20755;BME280;26385;48.470;7.938;2022-07-29T13:43:17;99739.72;;;28.99;37.75
20755;BME280;26385;48.470;7.938;2022-07-29T13:45:42;99734.97;;;29.04;37.59
20755;BME280;26385;48.470;7.938;2022-07-29T13:48:08;99732.41;;;29.02;36.96
20755;BME280;26385;48.470;7.938;2022-07-29T13:50:33;99736.09;;;29.14;36.62
20755;BME280;26385;48.470;7.938;2022-07-29T13:52:58;99726.00;;;29.05;37.08
20755;BME280;26385;48.470;7.938;2022-07-29T13:55:24;99722.19;;;29.09;36.81
20755;BME280;26385;48.470;7.938;2022-07-29T13:57:49;99719.03;;;29.16;37.05